Flight Track Log - Related Links

Times and Time Zones

All times are in EDT time to prevent confusion due to time zone crossing. See the FDX1938 flight status page for this flight to view local times or setup timezone preferences in your user account.

Time Position Orientation Groundspeed Altitude Reporting Facility
EDT Latitude Longitude Course Direction KTS MPH feet Rate Location/Type
Tue 11:42:14 PM 39.7720 -82.9710 200° South 242 278 3,400  Level FlightAware ADS-B
Tue 11:42:22 PM 39.7620 -82.9730 189° South 269 310 3,600 3,000 Climbing FlightAware ADS-B
Tue 11:42:42 PM 39.7370 -82.9630 163° South 284 327 4,800 4,000 Climbing FlightAware ADS-B
Tue 11:42:52 PM 39.7280 -82.9520 137° Southeast 282 325 5,600 4,286 Climbing FlightAware ADS-B
Tue 11:43:10 PM 39.7180 -82.9240 115° Southeast 290 334 6,800 3,913 Climbing FlightAware ADS-B
Tue 11:43:38 PM 39.7230 -82.8730 83° East 306 352 8,600 3,583 Climbing FlightAware ADS-B
Tue 11:44:22 PM 39.7440 -82.7930 71° East 335 386 11,100 2,571 Climbing FlightAware ADS-B
Tue 11:45:02 PM 39.7680 -82.7110 69° East 395 455 12,200 2,325 Climbing FlightAware ADS-B
Tue 11:45:42 PM 39.7950 -82.6190 69° East 417 480 14,200 3,150 Climbing FlightAware ADS-B
Tue 11:46:22 PM 39.8230 -82.5240 69° East 428 493 16,400 2,925 Climbing FlightAware ADS-B
Tue 11:47:02 PM 39.8520 -82.4260 69° East 446 513 18,100 2,550 Climbing FlightAware ADS-B
Tue 11:47:42 PM 39.8820 -82.3230 69° East 463 533 19,800 2,700 Climbing FlightAware ADS-B
Tue 11:48:22 PM 39.9130 -82.2210 68° East 471 542 21,700 2,325 Climbing FlightAware ADS-B
Tue 11:49:02 PM 39.9450 -82.1090 70° East 493 567 22,900 1,800 Climbing FlightAware ADS-B
Tue 11:49:42 PM 39.9780 -81.9960 69° East 514 592 24,100 2,148 Climbing FlightAware ADS-B
Tue 11:50:23 PM 40.0110 -81.8790 70° East 514 592 25,800 2,925 Climbing FlightAware ADS-B
Tue 11:51:02 PM 40.0440 -81.7650 69° East 500 575 28,000 2,775 Climbing FlightAware ADS-B
Tue 11:51:43 PM 40.0770 -81.6510 69° East 504 580 29,500 2,148 Climbing FlightAware ADS-B
Tue 11:52:23 PM 40.1100 -81.5370 69° East 505 581 30,900 1,059 Climbing FlightAware ADS-B
Tue 11:53:08 PM 40.1470 -81.4040 70° East 512 589 31,000 71 Climbing FlightAware ADS-B
Tue 11:53:47 PM 40.1790 -81.2900 70° East 509 586 31,000  Level FlightAware ADS-B
Tue 11:54:31 PM 40.2140 -81.1660 70° East 509 586 31,000  Level FlightAware ADS-B
Tue 11:55:13 PM 40.2480 -81.0450 70° East 508 585 31,000  Level FlightAware ADS-B
Tue 11:55:48 PM 40.2740 -80.9400 72° East 510 587 31,000  Level FlightAware ADS-B
Tue 11:56:29 PM 40.2900 -80.8140 81° East 511 588 31,000  Level FlightAware ADS-B
Tue 11:57:13 PM 40.3060 -80.6840 81° East 510 587 31,000  Level FlightAware ADS-B
Tue 11:57:53 PM 40.3210 -80.5580 81° East 510 587 31,000  Level FlightAware ADS-B
Tue 11:58:37 PM 40.3380 -80.4250 80° East 509 586 31,000  Level FlightAware ADS-B
Tue 11:59:16 PM 40.3550 -80.3070 79° East 507 583 31,000  Level FlightAware ADS-B
Wed 12:00:00 AM 40.3740 -80.1740 79° East 507 583 31,000  Level FlightAware ADS-B
Wed 12:00:40 AM 40.3920 -80.0530 79° East 508 585 31,000  Level FlightAware ADS-B
Wed 12:01:21 AM 40.4100 -79.9320 79° East 509 586 31,000  Level FlightAware ADS-B
Wed 12:02:06 AM 40.4310 -79.7920 79° East 510 587 31,000  Level FlightAware ADS-B
Wed 12:02:50 AM 40.4620 -79.6630 72° East 510 587 31,000  Level FlightAware ADS-B
Wed 12:03:29 AM 40.4950 -79.5570 68° East 510 587 31,000  Level FlightAware ADS-B
Wed 12:04:21 AM 40.5440 -79.4020 67° East 511 588 31,000  Level FlightAware ADS-B
Wed 12:05:01 AM 40.5800 -79.2900 67° East 512 589 31,000  Level FlightAware ADS-B
Wed 12:05:41 AM 40.6160 -79.1750 68° East 511 588 31,000  Level FlightAware ADS-B
Wed 12:06:21 AM 40.6530 -79.0570 68° East 512 589 31,000  Level FlightAware ADS-B
Wed 12:07:21 AM 40.7030 -78.8960 68° East 513 590 31,000  Level FlightAware ADS-B
Wed 12:08:01 AM 40.7400 -78.7800 67° East 514 592 31,000  Level FlightAware ADS-B
Wed 12:08:46 AM 40.7800 -78.6500 68° East 513 590 31,000  Level FlightAware ADS-B
Wed 12:09:26 AM 40.8150 -78.5340 68° East 512 589 31,000  Level FlightAware ADS-B
Wed 12:10:06 AM 40.8510 -78.4180 68° East 513 590 31,000  Level FlightAware ADS-B
Wed 12:10:51 AM 40.8910 -78.2870 68° East 515 593 31,000  Level FlightAware ADS-B
Wed 12:11:31 AM 40.9260 -78.1700 68° East 517 595 31,000  Level FlightAware ADS-B
Wed 12:12:16 AM 40.9660 -78.0410 68° East 515 593 31,000  Level FlightAware ADS-B
Wed 12:12:56 AM 40.9910 -77.9210 75° East 518 596 31,000  Level FlightAware ADS-B
Wed 12:13:35 AM 40.9880 -77.7910 92° East 515 593 31,000  Level FlightAware ADS-B
Wed 12:14:13 AM 40.9820 -77.6660 94° East 512 589 31,000  Level FlightAware ADS-B
Wed 12:14:58 AM 40.9750 -77.5280 94° East 512 589 31,000  Level FlightAware ADS-B
Wed 12:15:43 AM 40.9690 -77.3870 93° East 513 590 31,000  Level FlightAware ADS-B
Wed 12:16:33 AM 40.9613 -77.2242 94° East 515 593 31,000  Level FlightAware ADS-B
Wed 12:17:04 AM 40.9565 -77.1270 94° East 515 593 31,000  Level FlightAware ADS-B
Wed 12:17:35 AM 40.9518 -77.0295 94° East 516 594 31,000  Level FlightAware ADS-B
Wed 12:18:06 AM 40.9470 -76.9354 94° East 514 592 31,000  Level FlightAware ADS-B
Wed 12:18:40 AM 40.9415 -76.8258 94° East 514 592 31,000  Level FlightAware ADS-B
Wed 12:19:10 AM 40.9368 -76.7321 94° East 512 589 31,000 -300 Level FlightAware ADS-B
Wed 12:19:40 AM 40.9319 -76.6386 94° East 508 585 30,700 -1,400 Descending FlightAware ADS-B
Wed 12:20:10 AM 40.9271 -76.5471 94° East 496 571 29,600 -2,200 Descending FlightAware ADS-B
Wed 12:20:40 AM 40.9222 -76.4573 94° East 488 562 28,500 -2,164 Descending FlightAware ADS-B
Wed 12:21:11 AM 40.9175 -76.3660 94° East 478 550 27,400 -2,164 Descending FlightAware ADS-B
Wed 12:21:41 AM 40.9125 -76.2798 94° East 468 539 26,300 -2,200 Descending FlightAware ADS-B
Wed 12:22:11 AM 40.9073 -76.1949 95° East 461 531 25,200 -2,164 Descending FlightAware ADS-B
Wed 12:22:42 AM 40.9026 -76.1085 94° East 453 521 24,100 -2,066 Descending FlightAware ADS-B
Wed 12:23:12 AM 40.8977 -76.0267 95° East 445 512 23,100 -2,066 Descending FlightAware ADS-B
Wed 12:23:43 AM 40.8929 -75.9433 94° East 439 505 22,000 -2,129 Descending FlightAware ADS-B
Wed 12:24:14 AM 40.8884 -75.8609 94° East 432 497 20,900 -2,164 Descending FlightAware ADS-B
Wed 12:24:44 AM 40.8838 -75.7830 94° East 423 487 19,800 -2,066 Descending FlightAware ADS-B
Wed 12:25:15 AM 40.8789 -75.7042 95° East 412 474 18,800 -1,967 Descending FlightAware ADS-B
Wed 12:25:45 AM 40.8740 -75.6298 95° East 401 461 17,800 -1,770 Descending FlightAware ADS-B
Wed 12:26:16 AM 40.8695 -75.5559 95° East 386 444 17,000 -1,770 Descending FlightAware ADS-B
Wed 12:26:46 AM 40.8651 -75.4859 95° East 380 437 16,000 -2,000 Descending FlightAware ADS-B
Wed 12:27:16 AM 40.8608 -75.4170 95° East 375 432 15,000 -1,967 Descending FlightAware ADS-B
Wed 12:27:47 AM 40.8566 -75.3466 94° East 371 427 14,000 -1,862 Descending FlightAware ADS-B
Wed 12:28:14 AM 40.8524 -75.2860 95° East 366 421 13,200 -1,789 Descending FlightAware ADS-B
Wed 12:28:44 AM 40.8542 -75.2195 88° East 362 417 12,300 -1,600 Descending FlightAware ADS-B
Wed 12:29:14 AM 40.8572 -75.1543 86° East 347 399 11,600 -1,082 Descending FlightAware ADS-B
Wed 12:29:45 AM 40.8600 -75.0910 87° East 325 374 11,200 -968 Descending FlightAware ADS-B
Wed 12:30:16 AM 40.8624 -75.0308 87° East 315 362 10,600 -1,333 Descending FlightAware ADS-B
Wed 12:30:39 AM 40.8640 -74.9866 87° East 314 361 10,000 -1,421 Descending FlightAware ADS-B
Wed 12:30:54 AM 40.8649 -74.9582 88° East 308 354 9,700 -1,161 Descending FlightAware ADS-B
Wed 12:31:10 AM 40.8658 -74.9284 88° East 303 349 9,400 -750 Descending FlightAware ADS-B
Wed 12:31:26 AM 40.8666 -74.8989 88° East 301 346 9,300 -286 Descending FlightAware ADS-B
Wed 12:31:31 AM 40.8669 -74.8898 88° East 301 346 9,300  Level FlightAware ADS-B
Wed 12:31:41 AM 40.8675 -74.8715 88° East 300 345 9,300  Level FlightAware ADS-B
Wed 12:31:46 AM 40.8678 -74.8622 88° East 301 346 9,300  Level FlightAware ADS-B
Wed 12:31:57 AM 40.8685 -74.8419 87° East 302 348 9,300  Level FlightAware ADS-B
Wed 12:32:02 AM 40.8688 -74.8327 88° East 302 348 9,300  Level FlightAware ADS-B
Wed 12:32:12 AM 40.8695 -74.8142 87° East 303 349 9,300  Level FlightAware ADS-B
Wed 12:32:19 AM 40.8701 -74.8013 86° East 303 349 9,300  Level FlightAware ADS-B
Wed 12:32:28 AM 40.8716 -74.7847 83° East 303 349 9,300 -375 Level FlightAware ADS-B
Wed 12:32:35 AM 40.8729 -74.7720 82° East 299 344 9,200 -1,091 Descending FlightAware ADS-B
Wed 12:32:39 AM 40.8735 -74.7648 84° East 298 343 9,100 -1,500 Descending FlightAware ADS-B
Wed 12:32:51 AM 40.8745 -74.7412 87° East 297 342 8,800 -1,600 Descending FlightAware ADS-B
Wed 12:32:54 AM 40.8746 -74.7376 88° East 296 341 8,700 -1,200 Descending FlightAware ADS-B
Wed 12:33:11 AM 40.8755 -74.7071 88° East 292 336 8,400 -1,043 Descending FlightAware ADS-B
Wed 12:33:17 AM 40.8759 -74.6963 87° East 294 338 8,300 -1,091 Descending FlightAware ADS-B
Wed 12:33:33 AM 40.8765 -74.6679 88° East 290 334 8,000 -1,000 Descending FlightAware ADS-B
Wed 12:33:47 AM 40.8770 -74.6432 88° East 289 333 7,800 -1,034 Descending FlightAware ADS-B
Wed 12:34:02 AM 40.8772 -74.6167 89° East 290 334 7,500 -774 Descending FlightAware ADS-B
Wed 12:34:18 AM 40.8775 -74.5883 89° East 290 334 7,400 -375 Descending FlightAware ADS-B
Wed 12:34:34 AM 40.8778 -74.5600 89° East 289 333 7,300 -750 Descending FlightAware ADS-B
Wed 12:34:42 AM 40.8779 -74.5458 89° East 290 334 7,100 -1,200 Descending FlightAware ADS-B
Wed 12:34:49 AM 40.8781 -74.5335 89° East 289 333 7,000 -1,043 Descending FlightAware ADS-B
Wed 12:35:05 AM 40.8784 -74.5053 89° East 288 331 6,700 -923 Descending FlightAware ADS-B
Wed 12:35:15 AM 40.8786 -74.4877 89° East 289 333 6,600 -900 Descending FlightAware ADS-B
Wed 12:35:25 AM 40.8788 -74.4700 89° East 288 331 6,400 -1,000 Descending FlightAware ADS-B
Wed 12:35:33 AM 40.8789 -74.4561 89° East 288 331 6,300 -1,000 Descending FlightAware ADS-B
Wed 12:35:43 AM 40.8791 -74.4384 89° East 287 330 6,100 -1,059 Descending FlightAware ADS-B
Wed 12:35:50 AM 40.8791 -74.4261 90° East 287 330 6,000 -900 Descending FlightAware ADS-B
Wed 12:36:03 AM 40.8793 -74.4034 89° East 287 330 5,800 -800 Descending FlightAware ADS-B
Wed 12:36:05 AM 40.8793 -74.4000 90° East 286 329 5,800 -800 Level FlightAware ADS-B
Wed 12:36:18 AM 40.8793 -74.3773 90° East 285 328 5,600 -1,000 Descending FlightAware ADS-B
Wed 12:36:23 AM 40.8793 -74.3685 90° East 285 328 5,500 -1,200 Descending FlightAware ADS-B
Wed 12:36:38 AM 40.8793 -74.3407 90° East 285 328 5,200 -943 Descending FlightAware ADS-B
Wed 12:37:33 AM 40.8790 -74.2500 90° East 282 325 4,400 -935 Descending FlightAware ADS-B
Wed 12:37:55 AM 40.8797 -74.2095 89° East 279 321 4,000 -1,059 Descending FlightAware ADS-B
Wed 12:38:07 AM 40.8799 -74.1892 89° East 276 318 3,800 -857 Descending FlightAware ADS-B
Wed 12:38:23 AM 40.8801 -74.1624 89° East 273 314 3,600 -750 Descending FlightAware ADS-B
Wed 12:38:39 AM 40.8803 -74.1360 89° East 265 305 3,400 -600 Descending FlightAware ADS-B
Wed 12:38:53 AM 40.8804 -74.1138 90° East 252 290 3,300 -333 Descending FlightAware ADS-B
Wed 12:38:57 AM 40.8803 -74.1078 91° East 248 285 3,300  Level FlightAware ADS-B
Wed 12:39:01 AM 40.8797 -74.1017 97° East 246 283 3,300  Level FlightAware ADS-B
Wed 12:39:11 AM 40.8759 -74.0876 110° East 246 283 3,300  Level FlightAware ADS-B
Wed 12:39:15 AM 40.8734 -74.0826 123° Southeast 246 283 3,300  Level FlightAware ADS-B
Wed 12:39:41 AM 40.8479 -74.0665 154° Southeast 240 276 3,300  Level FlightAware ADS-B
Wed 12:39:44 AM 40.8439 -74.0673 189° South 234 269 3,300 -750 Level FlightAware ADS-B
Wed 12:39:49 AM 40.8389 -74.0690 194° South 228 262 3,200 -923 Descending FlightAware ADS-B
Wed 12:39:57 AM 40.8320 -74.0745 211° Southwest 221 254 3,100 -800 Descending FlightAware ADS-B
Wed 12:40:04 AM 40.8267 -74.0806 221° Southwest 220 253 3,000 -1,091 Descending FlightAware ADS-B
Wed 12:40:08 AM 40.8235 -74.0839 218° Southwest 221 254 2,900 -1,500 Descending FlightAware ADS-B
Wed 12:40:12 AM 40.8203 -74.0871 217° Southwest 223 257 2,800 -1,714 Descending FlightAware ADS-B
Wed 12:40:15 AM 40.8175 -74.0891 208° Southwest 223 257 2,700 -1,250 Descending FlightAware ADS-B
Wed 12:40:36 AM 40.7980 -74.1013 205° Southwest 223 257 2,300 -973 Descending FlightAware ADS-B
Wed 12:40:52 AM 40.7846 -74.1096 205° Southwest 196 226 2,100 -968 Descending FlightAware ADS-B
Wed 12:41:07 AM 40.7725 -74.1171 205° Southwest 183 211 1,800 -968 Descending FlightAware ADS-B
Wed 12:41:23 AM 40.7614 -74.1247 207° Southwest 165 190 1,600 -774 Descending FlightAware ADS-B
Wed 12:41:38 AM 40.7512 -74.1309 205° Southwest 150 173 1,400 -800 Descending FlightAware ADS-B
Wed 12:41:53 AM 40.7424 -74.1365 206° Southwest 135 155 1,200 -632 Descending FlightAware ADS-B
Wed 12:42:16 AM 40.7295 -74.1450 207° Southwest 135 155 1,000 -676 Descending FlightAware ADS-B
Wed 12:43:04 AM 40.7039 -74.1611 205° Southwest 131 151 400 -636 Descending FlightAware ADS-B
Wed 12:43:22 AM 40.6945 -74.1671 206° Southwest 131 151 300 -333 Descending FlightAware ADS-B

Login

Don't have an account? Register now (free) for customized features, flight alerts, and more!